Sunday, January 20, 2019, 6:53 AM GMT
Back to Local

CWJB, Ste Foy CS , Que.

Location: , , Canada Lat: 47.3
Local Time: 6:53 AM GMT ( 6:53 GMT) Lon: -71.267
Time Zone: GMT Elev: 298 ft

Show me the last for .
Show Decoded

2019-01-20 06:00 METAR CWJB 200600Z AUTO 05011G16KT M19/M22 RMK AO1 SOG 57 T11921221 =
2019-01-20 05:00 METAR CWJB 200500Z AUTO 04011G17KT M20/M23 RMK AO1 SOG 56 PK WND 05017/0453
                 T11981229 =
2019-01-20 04:00 METAR CWJB 200400Z AUTO 06010G15KT M19/M22 RMK AO1 SOG 56 T11911221 =
2019-01-20 03:00 METAR CWJB 200300Z AUTO 04007KT M20/M23 RMK AO1 SOG 56 T12021234 =
2019-01-20 02:00 METAR CWJB 200200Z AUTO 05006KT M21/M25 RMK AO1 SOG 56 T12111246 =
2019-01-20 01:00 METAR CWJB 200100Z AUTO 07005KT M21/M26 RMK AO1 SOG 56 T12111256 =
2019-01-20 00:00 METAR CWJB 200000Z AUTO 02003KT M22/M26 RMK AO1 SOG 56 T12191258 =
2019-01-19 23:00 METAR CWJB 192300Z AUTO 00000KT M22/M26 RMK AO1 SOG 56 T12201261 =
2019-01-19 22:00 METAR CWJB 192200Z AUTO 21001KT M22/M26 RMK AO1 SOG 56 T12191262 =
2019-01-19 21:00 METAR CWJB 192100Z AUTO 20002KT M22/M26 RMK AO1 SOG 56 T12211255 =
2019-01-19 20:00 METAR CWJB 192000Z AUTO 20003KT M22/M27 RMK AO1 SOG 56 T12231269 =
2019-01-19 19:00 METAR CWJB 191900Z AUTO 21004KT M23/M27 RMK AO1 SOG 56 T12281274 =
2019-01-19 18:00 METAR CWJB 191800Z AUTO 21005KT M23/M28 RMK AO1 SOG 56 T12311278 =
2019-01-19 17:00 METAR CWJB 191700Z AUTO 22006KT M23/M28 RMK AO1 SOG 56 T12311279 =
2019-01-19 16:00 METAR CWJB 191600Z AUTO 21005KT M23/M29 RMK AO1 SOG 56 T12321291 =
2019-01-19 15:00 METAR CWJB 191500Z AUTO 22005KT M23/M30 RMK AO1 SOG 56 T12251304 =
2019-01-19 14:00 METAR CWJB 191400Z AUTO 25002KT M25/ RMK AO1 SOG 56 T1246 =
2019-01-19 13:00 METAR CWJB 191300Z AUTO 32003KT M25/ RMK AO1 SOG 56 T1250 =
2019-01-19 12:00 METAR CWJB 191200Z AUTO 34005KT M24/ RMK AO1 SOG 57 T1235 =
2019-01-19 11:00 METAR CWJB 191100Z AUTO 33006KT M24/ RMK AO1 SOG 57 T1238 =
2019-01-19 10:00 METAR CWJB 191000Z AUTO 33005KT M23/ RMK AO1 SOG 57 T1233 =
2019-01-19 09:00 METAR CWJB 190900Z AUTO 32005KT M22/ RMK AO1 SOG 57 T1222 =
2019-01-19 08:00 METAR CWJB 190800Z AUTO 35002KT M21/ RMK AO1 SOG 57 T1209 =
2019-01-19 07:00 METAR CWJB 190700Z AUTO 30003KT M19/M27 RMK AO1 SOG 57 T11921266 =

Support USWX by starting your Amazon purchase here.